createdAt,value
2022-09-15T04:02:01.218Z,0.1
2022-09-15T04:04:00.977Z,0.2
2022-09-15T04:05:01.187Z,0.3
2022-09-15T04:07:00.978Z,0.5
2022-09-15T04:08:00.972Z,0.6
2022-09-15T04:09:00.981Z,0.8
2022-09-15T04:10:01.618Z,1.0
2022-09-15T04:11:01.010Z,1.2
2022-09-15T04:12:00.976Z,1.5
2022-09-15T04:13:00.973Z,1.9
2022-09-15T04:14:00.973Z,2.3
2022-09-15T04:17:00.981Z,3.9
2022-09-15T04:18:00.996Z,4.6
2022-09-15T04:19:02.073Z,5.8
2022-09-15T04:20:01.198Z,7.0
2022-09-15T04:21:01.446Z,8.2
2022-09-15T04:22:01.013Z,10.0
2022-09-15T04:23:01.023Z,11.8
2022-09-15T04:24:00.980Z,14.7
2022-09-15T04:25:01.463Z,17.5
2022-09-15T04:26:00.996Z,20.4
2022-09-15T04:27:01.321Z,24.5
2022-09-15T04:28:01.256Z,28.7
2022-09-15T04:29:04.392Z,35.0
2022-09-15T04:30:01.803Z,41.3
2022-09-15T04:31:01.080Z,47.7
2022-09-15T04:32:01.038Z,57.4
2022-09-15T04:33:00.988Z,67.1
2022-09-15T04:34:01.007Z,80.0
2022-09-15T04:35:06.628Z,92.9
2022-09-15T04:36:00.989Z,105.7
2022-09-15T04:38:06.283Z,137.3
2022-09-15T04:39:00.988Z,159.4
2022-09-15T04:42:01.228Z,233.0
2022-09-15T04:43:01.304Z,262.5
2022-09-15T04:45:13.754Z,336.7
2022-09-15T04:46:06.050Z,373.9
2022-09-15T04:53:01.582Z,816.7
2022-09-15T04:55:11.039Z,978.5
2022-09-15T04:56:02.134Z,1059.3
2022-09-15T04:57:05.999Z,1147.7
2022-09-15T04:58:01.471Z,1236.1
2022-09-15T04:59:03.745Z,1326.8
2022-09-15T05:01:01.073Z,1508.1
2022-09-15T05:02:01.024Z,1579.5
2022-09-15T05:03:16.017Z,1650.9
2022-09-15T05:04:01.199Z,1699.5
2022-09-15T05:05:01.001Z,1748.0
2022-09-15T05:06:01.010Z,1796.5
2022-09-15T05:07:01.092Z,1855.9
2022-09-15T05:08:00.999Z,1915.3
2022-09-15T05:09:01.225Z,1991.6
2022-09-15T05:10:01.007Z,2067.9
2022-09-15T05:11:02.063Z,2144.1
2022-09-15T05:12:01.015Z,2267.9
2022-09-15T05:13:00.993Z,2391.7
2022-09-15T05:14:01.506Z,2654.7
2022-09-15T05:16:01.058Z,3180.7
2022-09-15T05:17:00.991Z,3531.5
2022-09-15T05:18:00.996Z,3882.2
2022-09-15T05:19:01.195Z,4287.7
2022-09-15T05:20:01.012Z,4693.1
2022-09-15T05:21:01.037Z,5098.6
2022-09-15T05:22:00.991Z,5544.1
2022-09-15T05:23:00.996Z,5989.7
2022-09-15T05:24:01.266Z,6476.4
2022-09-15T05:25:01.022Z,6963.1
2022-09-15T05:26:01.027Z,7449.9
2022-09-15T05:27:06.006Z,7915.9
2022-09-15T05:28:01.054Z,8382.0
2022-09-15T05:29:01.225Z,8783.1
2022-09-15T05:30:37.054Z,9184.3
2022-09-15T05:31:06.055Z,9585.4
2022-09-15T05:32:00.992Z,9993.9
2022-09-15T05:33:01.004Z,10402.3
2022-09-15T05:34:01.231Z,10788.8
2022-09-15T05:35:01.003Z,11175.3
2022-09-15T05:36:01.037Z,11561.7
2022-09-15T05:37:01.032Z,12585.7
2022-09-15T05:38:01.265Z,13609.6
2022-09-15T05:39:01.230Z,14586.2
2022-09-15T05:40:03.201Z,15562.8
2022-09-15T05:41:01.450Z,16539.4
2022-09-15T05:42:00.990Z,17200.0
2022-09-15T05:43:00.998Z,17860.6
2022-09-15T05:44:01.459Z,18235.4
2022-09-15T05:46:01.036Z,18985.0
2022-09-15T05:47:01.076Z,19653.4
2022-09-15T05:48:00.998Z,20321.8
2022-09-15T05:49:01.231Z,21394.9
2022-09-15T05:50:01.032Z,22467.9
2022-09-15T05:51:01.088Z,23541.0
2022-09-15T05:52:00.998Z,23994.7
2022-09-15T05:53:00.995Z,24448.5
2022-09-15T05:54:01.208Z,24912.8
2022-09-15T05:55:01.004Z,25377.1
2022-09-15T05:56:01.041Z,25841.5
2022-09-15T05:57:01.065Z,26686.8
2022-09-15T05:58:01.009Z,27532.1
2022-09-15T05:59:01.203Z,28976.8
2022-09-15T06:01:01.052Z,31866.1
2022-09-15T06:02:01.092Z,32512.5
2022-09-15T06:03:01.335Z,33158.9
2022-09-15T06:04:01.465Z,33205.4
2022-09-15T06:05:01.692Z,33251.9
2022-09-15T06:06:01.045Z,33298.3
2022-09-15T06:07:01.003Z,33022.3
2022-09-15T06:08:01.020Z,32746.3
2022-09-15T06:09:01.534Z,32433.6
2022-09-15T06:10:01.094Z,32120.9
2022-09-15T06:11:01.397Z,31808.1
2022-09-15T06:12:01.278Z,31365.5
2022-09-15T06:13:01.029Z,30922.9
2022-09-15T06:14:01.370Z,30090.1
2022-09-15T06:16:01.060Z,28424.3
2022-09-15T06:17:01.084Z,28039.2
2022-09-15T06:18:01.014Z,27654.1
2022-09-15T06:19:01.231Z,27441.9
2022-09-15T06:21:01.013Z,27017.5
2022-09-15T06:22:01.055Z,27089.5
2022-09-15T06:23:01.040Z,27161.5
2022-09-15T06:24:01.218Z,27253.1
2022-09-15T06:25:01.023Z,27344.8
2022-09-15T06:26:01.138Z,27436.5
2022-09-15T06:27:01.037Z,27595.7
2022-09-15T06:28:01.017Z,27755.0
2022-09-15T06:29:01.521Z,27925.3
2022-09-15T06:31:01.009Z,28265.8
2022-09-15T06:32:01.146Z,28456.3
2022-09-15T06:33:01.016Z,28646.9
2022-09-15T06:34:01.253Z,28879.4
2022-09-15T06:36:01.010Z,29344.5
2022-09-15T06:37:01.045Z,29565.1
2022-09-15T06:38:01.277Z,29785.7
2022-09-15T06:39:01.216Z,30100.2
2022-09-15T06:40:01.091Z,30414.7
2022-09-15T06:41:01.013Z,30729.3
2022-09-15T06:42:03.147Z,31067.7
2022-09-15T06:43:01.011Z,31406.2
2022-09-15T06:44:01.244Z,33247.3
2022-09-15T06:46:01.068Z,36929.4
2022-09-15T06:47:01.048Z,39065.1
2022-09-15T06:48:20.559Z,41200.7
2022-09-15T06:49:01.161Z,43508.8
2022-09-15T06:50:01.841Z,45816.9
2022-09-15T06:51:01.030Z,48124.9
2022-09-15T06:52:01.047Z,50404.7
2022-09-15T06:53:01.012Z,52684.4
2022-09-15T06:54:07.440Z,54850.0
2022-09-15T06:56:01.016Z,59181.2
2022-09-15T06:57:01.058Z,61276.9
2022-09-15T06:58:01.027Z,63372.7
2022-09-15T06:59:07.065Z,63945.0
2022-09-15T07:01:01.081Z,65089.7
2022-09-15T07:02:04.830Z,65312.3
2022-09-15T07:03:01.105Z,65535.0
2022-09-15T09:15:02.032Z,65535.0
2022-09-15T09:30:01.736Z,65535.0
2022-09-15T09:45:02.156Z,65535.0
2022-09-15T10:00:03.163Z,65535.0
2022-09-15T10:30:02.120Z,65535.0
2022-09-15T11:42:01.385Z,65364.9
2022-09-15T11:43:01.117Z,65194.7
2022-09-15T11:44:01.111Z,65024.6
2022-09-15T11:45:01.637Z,65024.6
2022-09-15T11:57:01.143Z,65194.7
2022-09-15T11:58:01.112Z,65364.9
2022-09-15T11:59:01.102Z,65535.0
2022-09-15T12:00:02.927Z,65535.0
2022-09-15T12:12:01.332Z,65224.8
2022-09-15T12:13:01.221Z,64914.6
2022-09-15T12:14:01.114Z,64604.4
2022-09-15T12:28:01.100Z,64914.6
2022-09-15T12:29:01.125Z,65224.8
2022-09-15T12:30:01.868Z,65535.0
2022-09-15T13:15:02.155Z,65535.0
2022-09-15T13:45:02.618Z,65535.0
2022-09-15T14:00:03.059Z,65535.0
2022-09-15T14:30:02.017Z,65535.0
2022-09-15T15:12:00.892Z,63874.3
2022-09-15T15:13:00.823Z,63044.0
2022-09-15T15:14:00.868Z,62545.8
2022-09-15T15:15:01.412Z,63044.0
2022-09-15T15:16:00.870Z,63399.9
2022-09-15T15:17:00.990Z,63666.8
2022-09-15T15:18:00.837Z,63874.3
2022-09-15T15:19:00.819Z,64040.4
2022-09-15T15:21:00.829Z,64289.5
2022-09-15T15:22:00.817Z,64385.3
2022-09-15T15:23:00.821Z,64467.4
2022-09-15T15:24:00.836Z,64538.6
2022-09-15T15:27:00.844Z,64870.7
2022-09-15T15:28:00.814Z,65202.9
2022-09-15T15:29:00.820Z,65535.0
2022-09-15T15:30:01.771Z,65535.0
2022-09-15T15:45:01.730Z,65535.0
2022-09-15T15:57:00.844Z,65271.4
2022-09-15T15:58:00.826Z,65007.8
2022-09-15T15:59:00.846Z,64744.2
2022-09-15T16:01:00.876Z,63014.7
2022-09-15T16:02:00.918Z,61833.7
2022-09-15T16:03:00.844Z,60652.6
2022-09-15T16:04:00.820Z,59471.5
2022-09-15T16:05:02.335Z,58678.9
2022-09-15T16:06:00.820Z,57886.2
2022-09-15T16:07:00.827Z,56909.1
2022-09-15T16:08:00.849Z,55932.1
2022-09-15T16:09:01.897Z,54955.0
2022-09-15T16:11:00.901Z,52817.7
2022-09-15T16:12:00.825Z,51460.3
2022-09-15T16:13:05.644Z,50102.9
2022-09-15T16:14:00.880Z,48745.5
2022-09-15T16:15:01.502Z,47570.6
2022-09-15T16:16:00.902Z,46395.7
2022-09-15T16:17:00.847Z,45201.5
2022-09-15T16:18:00.831Z,44007.3
2022-09-15T16:19:00.826Z,42813.1
2022-09-15T16:20:02.071Z,41208.4
2022-09-15T16:21:00.838Z,39603.7
2022-09-15T16:22:01.148Z,38247.1
2022-09-15T16:23:00.828Z,36890.5
2022-09-15T16:24:00.824Z,35533.9
2022-09-15T16:25:01.046Z,34513.6
2022-09-15T16:26:00.829Z,33493.3
2022-09-15T16:27:00.828Z,33455.4
2022-09-15T16:28:05.390Z,33417.5
2022-09-15T16:29:00.826Z,33379.5
2022-09-15T16:31:04.085Z,34465.8
2022-09-15T16:32:00.831Z,35403.0
2022-09-15T16:33:00.884Z,36340.2
2022-09-15T16:34:01.144Z,37277.4
2022-09-15T16:36:01.892Z,38747.7
2022-09-15T16:37:01.109Z,38976.7
2022-09-15T16:38:05.393Z,39205.8
2022-09-15T16:39:00.831Z,39434.9
2022-09-15T16:40:02.332Z,39045.7
2022-09-15T16:41:00.830Z,38656.6
2022-09-15T16:42:00.830Z,37696.5
2022-09-15T16:43:01.859Z,36736.3
2022-09-15T16:44:00.829Z,35776.2
2022-09-15T16:45:02.147Z,34531.3
2022-09-15T16:46:00.826Z,33286.5
2022-09-15T16:47:00.922Z,31849.7
2022-09-15T16:48:00.831Z,30412.9
2022-09-15T16:49:00.873Z,28976.1
2022-09-15T16:50:01.052Z,27687.0
2022-09-15T16:51:31.501Z,26397.9
2022-09-15T16:52:00.823Z,25564.9
2022-09-15T16:53:00.867Z,24731.8
2022-09-15T16:54:00.836Z,23898.7
2022-09-15T16:55:01.050Z,23465.1
2022-09-15T16:56:00.834Z,23031.5
2022-09-15T16:57:00.834Z,22686.7
2022-09-15T16:58:00.866Z,22341.9
2022-09-15T16:59:01.450Z,21997.1
2022-09-15T17:01:00.912Z,21276.5
2022-09-15T17:02:00.863Z,20891.0
2022-09-15T17:03:00.873Z,20505.5
2022-09-15T17:04:00.839Z,20120.1
2022-09-15T17:05:17.080Z,19672.2
2022-09-15T17:06:00.823Z,19224.3
2022-09-15T17:07:00.937Z,18666.6
2022-09-15T17:08:00.864Z,18108.9
2022-09-15T17:09:00.840Z,17551.1
2022-09-15T17:11:00.841Z,16222.5
2022-09-15T17:12:00.870Z,15538.3
2022-09-15T17:13:00.860Z,14854.1
2022-09-15T17:14:00.841Z,14169.9
2022-09-15T17:16:00.908Z,12933.6
2022-09-15T17:17:00.846Z,12408.8
2022-09-15T17:18:00.889Z,11884.0
2022-09-15T17:19:00.850Z,11359.2
2022-09-15T17:21:00.903Z,10464.3
2022-09-15T17:22:00.839Z,10059.9
2022-09-15T17:23:00.881Z,9655.5
2022-09-15T17:24:00.837Z,9251.1
2022-09-15T17:26:00.838Z,8512.5
2022-09-15T17:27:00.842Z,8179.9
2022-09-15T17:28:00.888Z,7847.3
2022-09-15T17:29:00.856Z,7514.7
2022-09-15T17:31:00.868Z,6863.9
2022-09-15T17:32:00.845Z,6543.7
2022-09-15T17:33:01.086Z,6223.4
2022-09-15T17:34:00.854Z,5903.1
2022-09-15T17:36:00.875Z,5294.5
2022-09-15T17:37:00.878Z,5007.0
2022-09-15T17:38:01.148Z,4719.5
2022-09-15T17:39:00.846Z,4432.1
2022-09-15T17:41:01.134Z,3882.5
2022-09-15T17:43:00.885Z,3345.8
2022-09-15T17:44:00.850Z,3077.5
2022-09-15T17:46:00.920Z,2617.5
2022-09-15T17:47:00.846Z,2425.5
2022-09-15T17:48:01.206Z,2233.5
2022-09-15T17:49:00.847Z,2041.5
2022-09-15T17:50:01.869Z,1876.8
2022-09-15T17:51:00.928Z,1712.1
2022-09-15T17:52:00.910Z,1569.2
2022-09-15T17:53:00.916Z,1426.3
2022-09-15T17:54:00.949Z,1283.3
2022-09-15T17:55:02.279Z,1162.0
2022-09-15T17:56:00.844Z,1040.7
2022-09-15T17:57:00.909Z,940.0
2022-09-15T17:58:01.006Z,839.3
2022-09-15T17:59:00.856Z,738.7
2022-09-15T18:01:00.880Z,577.5
2022-09-15T18:02:00.886Z,514.7
2022-09-15T18:03:00.911Z,451.9
2022-09-15T18:04:00.851Z,389.1
2022-09-15T18:05:01.548Z,341.5
2022-09-15T18:06:01.117Z,293.9
2022-09-15T18:07:00.858Z,258.7
2022-09-15T18:08:00.882Z,223.6
2022-09-15T18:09:00.880Z,188.5
2022-09-15T18:11:00.856Z,137.9
2022-09-15T18:12:00.852Z,120.1
2022-09-15T18:13:00.878Z,102.3
2022-09-15T18:14:00.851Z,84.5
2022-09-15T18:16:00.919Z,60.0
2022-09-15T18:17:00.849Z,51.8
2022-09-15T18:18:00.914Z,43.6
2022-09-15T18:19:00.854Z,35.4
2022-09-15T18:20:01.611Z,30.1
2022-09-15T18:21:00.857Z,24.7
2022-09-15T18:22:00.923Z,21.3
2022-09-15T18:23:00.907Z,17.9
2022-09-15T18:24:00.855Z,14.5
2022-09-15T18:25:01.098Z,12.4
2022-09-15T18:26:00.863Z,10.3
2022-09-15T18:27:01.124Z,8.9
2022-09-15T18:28:00.888Z,7.5
2022-09-15T18:29:00.863Z,6.1
2022-09-15T18:31:00.881Z,4.3
2022-09-15T18:32:00.863Z,3.8
2022-09-15T18:33:00.892Z,3.3
2022-09-15T18:34:00.863Z,2.7
2022-09-15T18:36:00.867Z,2.1
2022-09-15T18:37:01.277Z,1.8
2022-09-15T18:38:00.887Z,1.5
2022-09-15T18:39:01.886Z,1.3
2022-09-15T18:40:02.208Z,1.1
2022-09-15T18:41:00.877Z,0.9
2022-09-15T18:42:00.931Z,0.7
2022-09-15T18:43:01.406Z,0.6
2022-09-15T18:44:00.922Z,0.5
2022-09-15T18:46:00.914Z,0.3
2022-09-15T18:48:00.885Z,0.2
2022-09-15T18:49:00.867Z,0.1
